createdAt,value
2019-01-08T00:00:46.757Z,4.90
2019-01-08T00:03:33.888Z,4.80
2019-01-08T00:06:14.320Z,4.90
2019-01-08T00:08:54.498Z,4.90
2019-01-08T00:11:34.734Z,5.20
2019-01-08T00:14:14.825Z,5.20
2019-01-08T00:16:54.922Z,5.10
2019-01-08T00:19:34.850Z,5.10
2019-01-08T00:22:15.190Z,5.00
2019-01-08T00:24:55.030Z,5.00
2019-01-08T00:27:38.093Z,5.00
2019-01-08T00:30:19.197Z,5.20
2019-01-08T00:32:59.121Z,4.90
2019-01-08T00:35:39.182Z,5.00
2019-01-08T00:38:19.157Z,4.90
2019-01-08T00:40:59.436Z,4.90
2019-01-08T00:43:39.190Z,5.10
2019-01-08T00:46:19.361Z,5.00
2019-01-08T00:48:59.399Z,5.00
2019-01-08T00:51:39.461Z,5.10
2019-01-08T00:54:19.454Z,5.00
2019-01-08T00:56:59.816Z,4.90
2019-01-08T00:59:40.593Z,4.80
2019-01-08T01:02:20.811Z,4.80
2019-01-08T01:05:00.965Z,4.70
2019-01-08T01:07:41.005Z,4.70
2019-01-08T01:10:21.218Z,4.50
2019-01-08T01:13:02.423Z,4.90
2019-01-08T01:15:42.650Z,4.80
2019-01-08T01:18:10.380Z,4.90
2019-01-08T01:20:50.807Z,4.90
2019-01-08T01:23:31.126Z,4.90
2019-01-08T01:26:10.927Z,4.90
2019-01-08T01:28:50.950Z,4.90
2019-01-08T01:31:30.937Z,5.10
2019-01-08T01:34:10.878Z,4.90
2019-01-08T01:36:50.801Z,4.90
2019-01-08T01:39:30.957Z,4.80
2019-01-08T01:42:10.993Z,4.80
2019-01-08T01:44:51.195Z,4.80
2019-01-08T01:47:31.230Z,4.90
2019-01-08T01:50:11.397Z,4.90
2019-01-08T01:52:51.374Z,4.90
2019-01-08T01:55:31.533Z,5.00
2019-01-08T01:58:11.631Z,5.00
2019-01-08T02:00:51.653Z,5.10
2019-01-08T02:03:31.855Z,5.10
2019-01-08T02:06:11.906Z,4.90
2019-01-08T02:08:51.777Z,5.10
2019-01-08T02:11:31.801Z,5.30
2019-01-08T02:14:11.843Z,5.10
2019-01-08T02:16:52.154Z,5.20
2019-01-08T02:19:31.899Z,5.20
2019-01-08T02:22:11.981Z,5.20
2019-01-08T02:24:51.894Z,5.10
2019-01-08T02:27:32.210Z,5.00
2019-01-08T02:30:12.115Z,5.10
2019-01-08T02:32:52.174Z,5.10
2019-01-08T02:35:32.188Z,5.20
2019-01-08T02:38:12.245Z,5.10
2019-01-08T02:40:52.427Z,5.10
2019-01-08T02:43:32.545Z,5.20
2019-01-08T02:46:12.581Z,5.20
2019-01-08T02:48:52.630Z,5.10
2019-01-08T02:51:32.847Z,5.10
2019-01-08T02:54:12.722Z,5.00
2019-01-08T02:56:52.978Z,5.00
2019-01-08T02:59:33.025Z,5.00
2019-01-08T03:02:12.802Z,5.10
2019-01-08T03:04:52.685Z,5.10
2019-01-08T03:07:32.674Z,5.10
2019-01-08T03:10:12.523Z,5.20
2019-01-08T03:12:52.603Z,4.90
2019-01-08T03:15:32.688Z,5.00
2019-01-08T03:18:12.750Z,5.10
2019-01-08T03:24:13.814Z,5.20
2019-01-08T03:26:54.097Z,5.20
2019-01-08T03:29:34.757Z,5.40
2019-01-08T03:32:15.054Z,5.30
2019-01-08T03:34:55.294Z,5.20
2019-01-08T03:37:35.404Z,5.10
2019-01-08T03:40:15.484Z,5.20
2019-01-08T03:42:55.477Z,5.20
2019-01-08T03:45:35.208Z,5.40
2019-01-08T03:48:15.185Z,5.40
2019-01-08T03:50:55.261Z,5.20
2019-01-08T03:53:35.359Z,5.10
2019-01-08T03:56:15.750Z,5.10
2019-01-08T03:58:56.182Z,5.30
2019-01-08T04:01:36.441Z,5.20
2019-01-08T04:04:16.477Z,5.30
2019-01-08T04:06:56.481Z,5.30
2019-01-08T04:09:36.550Z,5.50
2019-01-08T04:12:16.613Z,5.30
2019-01-08T04:14:56.585Z,5.40
2019-01-08T04:17:36.870Z,5.30
2019-01-08T04:20:17.129Z,5.50
2019-01-08T04:22:56.962Z,5.30
2019-01-08T04:25:41.209Z,5.40
2019-01-08T04:28:21.238Z,5.20
2019-01-08T04:31:01.383Z,5.10
2019-01-08T04:33:41.341Z,5.10
2019-01-08T04:36:21.344Z,5.10
2019-01-08T04:39:01.351Z,5.30
2019-01-08T04:41:29.114Z,5.20
2019-01-08T04:44:09.362Z,5.30
2019-01-08T04:46:49.402Z,5.20
2019-01-08T04:49:29.552Z,5.30
2019-01-08T04:52:09.522Z,5.60
2019-01-08T04:54:49.549Z,5.30
2019-01-08T04:57:29.734Z,5.30
2019-01-08T05:00:09.658Z,5.50
2019-01-08T05:02:49.780Z,5.70
2019-01-08T05:05:29.985Z,5.50
2019-01-08T05:07:57.765Z,5.60
2019-01-08T05:10:38.089Z,5.40
2019-01-08T05:13:18.118Z,5.30
2019-01-08T05:15:58.157Z,5.40
2019-01-08T05:18:38.120Z,5.40
2019-01-08T05:21:21.486Z,5.40
2019-01-08T05:24:02.036Z,5.30
2019-01-08T05:26:42.050Z,5.40
2019-01-08T05:29:22.267Z,5.40
2019-01-08T05:32:02.358Z,5.30
2019-01-08T05:34:42.376Z,5.50
2019-01-08T05:40:18.422Z,5.50
2019-01-08T05:42:58.289Z,5.40
2019-01-08T05:45:38.402Z,5.40
2019-01-08T05:48:18.394Z,5.50
2019-01-08T05:50:58.402Z,5.40
2019-01-08T05:53:38.528Z,5.50
2019-01-08T05:56:19.865Z,5.50
2019-01-08T05:59:00.640Z,5.50
2019-01-08T06:01:40.798Z,5.60
2019-01-08T06:04:20.777Z,5.60
2019-01-08T06:07:01.334Z,5.60
2019-01-08T06:09:42.014Z,5.50
2019-01-08T06:12:22.887Z,5.50
2019-01-08T06:15:03.123Z,5.50
2019-01-08T06:17:43.015Z,5.60
2019-01-08T06:20:24.161Z,5.70
2019-01-08T06:23:05.199Z,5.80
2019-01-08T06:25:45.643Z,5.90
2019-01-08T06:28:25.726Z,5.70
2019-01-08T06:31:05.950Z,5.80
2019-01-08T06:33:46.053Z,5.90
2019-01-08T06:36:26.305Z,5.90
2019-01-08T06:39:06.269Z,6.10
2019-01-08T06:41:46.486Z,6.00
2019-01-08T06:44:26.633Z,6.20
2019-01-08T06:47:06.581Z,6.40
2019-01-08T06:49:46.846Z,6.30
2019-01-08T06:52:27.541Z,6.30
2019-01-08T06:55:07.665Z,6.50
2019-01-08T06:57:47.739Z,6.60
2019-01-08T07:00:33.244Z,6.50
2019-01-08T07:03:09.894Z,6.30
2019-01-08T07:05:50.430Z,6.30
2019-01-08T07:08:30.650Z,6.50
2019-01-08T07:11:10.685Z,6.40
2019-01-08T07:13:51.423Z,6.40
2019-01-08T07:16:32.065Z,6.60
2019-01-08T07:19:12.770Z,6.70
2019-01-08T07:21:52.810Z,6.60
2019-01-08T07:24:33.049Z,6.60
2019-01-08T07:27:16.589Z,6.40
2019-01-08T07:29:55.310Z,6.50
2019-01-08T07:35:38.645Z,6.30
2019-01-08T07:38:19.010Z,6.30
2019-01-08T07:40:59.046Z,6.30
2019-01-08T07:46:37.898Z,6.60
2019-01-08T07:49:18.395Z,6.60
2019-01-08T07:51:58.991Z,6.60
2019-01-08T07:54:38.965Z,6.50
2019-01-08T07:57:19.265Z,6.50
2019-01-08T07:59:59.254Z,6.50
2019-01-08T08:02:42.296Z,6.40
2019-01-08T08:05:22.291Z,6.40
2019-01-08T08:08:02.270Z,6.60
2019-01-08T08:10:42.110Z,6.60
2019-01-08T08:13:22.074Z,6.50
2019-01-08T08:16:02.448Z,6.70
2019-01-08T08:18:43.083Z,6.50
2019-01-08T08:21:23.137Z,6.50
2019-01-08T08:24:03.334Z,6.50
2019-01-08T08:26:43.465Z,6.50
2019-01-08T08:29:23.627Z,6.40
2019-01-08T08:32:03.636Z,6.50
2019-01-08T08:34:43.770Z,6.40
2019-01-08T08:37:23.662Z,6.30
2019-01-08T08:40:03.665Z,6.40
2019-01-08T08:42:43.713Z,6.50
2019-01-08T08:45:24.021Z,6.70
2019-01-08T08:48:03.946Z,6.60
2019-01-08T08:50:44.032Z,6.60
2019-01-08T08:53:28.248Z,7.00
2019-01-08T08:56:08.526Z,6.80
2019-01-08T08:58:48.713Z,6.80
2019-01-08T09:01:28.743Z,6.70
2019-01-08T09:04:10.082Z,6.80
2019-01-08T09:06:49.905Z,6.70
2019-01-08T09:09:30.183Z,6.70
2019-01-08T09:12:10.187Z,6.80
2019-01-08T09:14:50.318Z,6.70
2019-01-08T09:17:30.294Z,7.00
2019-01-08T09:20:10.719Z,7.00
2019-01-08T09:22:51.700Z,6.90
2019-01-08T09:25:31.893Z,6.90
2019-01-08T09:28:11.784Z,7.20
2019-01-08T09:30:51.959Z,7.20
2019-01-08T09:33:31.921Z,7.50
2019-01-08T09:36:12.142Z,7.50
2019-01-08T09:38:52.027Z,7.50
2019-01-08T09:41:31.898Z,7.60
2019-01-08T09:44:11.970Z,7.60
2019-01-08T09:46:52.119Z,7.80
2019-01-08T09:49:19.929Z,7.80
2019-01-08T09:52:00.467Z,7.80
2019-01-08T09:54:40.490Z,7.90
2019-01-08T09:57:20.642Z,7.70
2019-01-08T10:00:00.834Z,7.70
2019-01-08T10:05:37.238Z,7.90
2019-01-08T10:08:17.145Z,8.00
2019-01-08T10:10:57.084Z,8.30
2019-01-08T10:13:37.009Z,8.30
2019-01-08T10:16:17.194Z,8.40
2019-01-08T10:18:57.301Z,8.60
2019-01-08T10:21:37.470Z,8.70
2019-01-08T10:24:17.507Z,8.80
2019-01-08T10:26:57.611Z,9.00
2019-01-08T10:29:37.766Z,9.00
2019-01-08T10:32:17.802Z,9.10
2019-01-08T10:34:59.533Z,9.10
2019-01-08T10:37:39.886Z,9.20
2019-01-08T10:40:22.880Z,9.30
2019-01-08T10:48:47.335Z,9.60
2019-01-08T10:51:27.811Z,9.80
2019-01-08T10:56:47.747Z,9.40
2019-01-08T10:59:27.758Z,9.30
2019-01-08T11:02:07.737Z,9.40
2019-01-08T11:04:47.670Z,9.20
2019-01-08T11:07:27.781Z,9.20
2019-01-08T11:10:08.083Z,9.30
2019-01-08T11:12:48.986Z,8.90
2019-01-08T11:15:29.250Z,8.90
2019-01-08T11:18:09.933Z,8.80
2019-01-08T11:20:50.291Z,8.90
2019-01-08T11:23:30.050Z,8.70
2019-01-08T11:26:10.165Z,8.90
2019-01-08T11:28:50.182Z,8.90
2019-01-08T11:31:30.116Z,8.90
2019-01-08T11:34:13.542Z,9.00
2019-01-08T11:36:53.709Z,8.90
2019-01-08T11:39:33.629Z,8.70
2019-01-08T11:42:13.737Z,8.70
2019-01-08T11:44:53.902Z,8.90
2019-01-08T11:47:33.917Z,8.90
2019-01-08T11:50:14.019Z,9.00
2019-01-08T11:52:54.114Z,9.10
2019-01-08T11:55:34.343Z,9.10
2019-01-08T11:58:14.437Z,9.20
2019-01-08T12:00:54.510Z,9.20
2019-01-08T12:03:34.271Z,9.20
2019-01-08T12:06:14.357Z,9.30
2019-01-08T12:08:54.574Z,9.00
2019-01-08T12:11:34.658Z,9.10
2019-01-08T12:14:14.682Z,9.10
2019-01-08T12:16:54.769Z,9.30
2019-01-08T12:19:34.846Z,9.10
2019-01-08T12:22:14.886Z,9.00
2019-01-08T12:27:59.310Z,8.90
2019-01-08T12:33:23.241Z,8.70
2019-01-08T12:36:03.379Z,8.50
2019-01-08T12:38:43.349Z,8.50
2019-01-08T12:41:23.390Z,8.60
2019-01-08T12:44:03.214Z,8.60
2019-01-08T12:46:44.286Z,8.50
2019-01-08T12:49:24.401Z,8.60
2019-01-08T12:52:04.367Z,8.60
2019-01-08T12:54:44.418Z,8.70
2019-01-08T12:57:24.548Z,8.70
2019-01-08T13:00:04.511Z,8.90
2019-01-08T13:02:44.616Z,8.70
2019-01-08T13:05:24.737Z,8.60
2019-01-08T13:08:04.664Z,8.60
2019-01-08T13:10:45.937Z,8.50
2019-01-08T13:13:26.757Z,8.60
2019-01-08T13:15:54.581Z,8.50
2019-01-08T13:18:34.783Z,8.70
2019-01-08T13:21:14.743Z,8.70
2019-01-08T13:23:55.622Z,8.70
2019-01-08T13:26:36.103Z,8.60
2019-01-08T13:29:15.850Z,8.50
2019-01-08T13:31:59.696Z,8.70
2019-01-08T13:34:40.281Z,8.80
2019-01-08T13:37:20.508Z,8.50
2019-01-08T13:40:00.510Z,8.20
2019-01-08T13:42:40.656Z,8.40
2019-01-08T13:45:20.703Z,8.20
2019-01-08T13:48:00.609Z,8.30
2019-01-08T13:50:42.704Z,8.50
2019-01-08T13:53:23.147Z,8.50
2019-01-08T13:56:03.797Z,8.50
2019-01-08T13:58:44.067Z,8.50
2019-01-08T14:01:24.250Z,8.40
2019-01-08T14:04:04.279Z,8.40
2019-01-08T14:06:44.426Z,8.40
2019-01-08T14:09:24.474Z,8.20
2019-01-08T14:12:04.498Z,8.50
2019-01-08T14:14:44.516Z,8.30
2019-01-08T14:17:24.737Z,8.30
2019-01-08T14:20:04.800Z,8.40
2019-01-08T14:22:44.984Z,8.40
2019-01-08T14:25:25.069Z,8.20
2019-01-08T14:28:05.269Z,8.30
2019-01-08T14:30:45.876Z,8.50
2019-01-08T14:33:25.938Z,8.50
2019-01-08T14:36:06.721Z,8.40
2019-01-08T14:38:48.120Z,8.30
2019-01-08T14:41:28.685Z,8.30
2019-01-08T14:44:08.906Z,8.40
2019-01-08T14:46:48.875Z,8.30
2019-01-08T14:49:29.177Z,8.20
2019-01-08T14:52:09.381Z,8.30
2019-01-08T14:54:49.557Z,8.30
2019-01-08T14:57:29.449Z,8.50
2019-01-08T15:00:09.549Z,8.30
2019-01-08T15:02:50.018Z,8.50
2019-01-08T15:08:34.040Z,8.50
2019-01-08T15:11:14.054Z,8.40
2019-01-08T15:13:53.923Z,8.30
2019-01-08T15:16:34.153Z,8.50
2019-01-08T15:19:14.225Z,8.10
2019-01-08T15:21:54.326Z,8.20
2019-01-08T15:24:34.487Z,8.20
2019-01-08T15:27:14.566Z,8.20
2019-01-08T15:29:54.733Z,8.30
2019-01-08T15:32:34.738Z,8.10
2019-01-08T15:35:14.893Z,8.30
2019-01-08T15:37:55.068Z,8.10
2019-01-08T15:40:35.049Z,8.10
2019-01-08T15:43:15.035Z,8.20
2019-01-08T15:45:54.796Z,8.10
2019-01-08T15:48:35.078Z,8.20
2019-01-08T15:51:15.145Z,8.20
2019-01-08T15:53:58.030Z,8.40
2019-01-08T15:56:38.278Z,8.10
2019-01-08T15:59:18.367Z,8.50
2019-01-08T16:01:58.541Z,8.40
2019-01-08T16:04:38.420Z,8.20
2019-01-08T16:07:18.410Z,8.50
2019-01-08T16:09:58.736Z,8.20
2019-01-08T16:12:39.333Z,8.30
2019-01-08T16:15:19.454Z,8.30
2019-01-08T16:17:59.515Z,8.30
2019-01-08T16:20:39.494Z,8.20
2019-01-08T16:23:19.429Z,8.30
2019-01-08T16:25:59.471Z,8.20
2019-01-08T16:28:39.517Z,8.40
2019-01-08T16:31:19.788Z,8.30
2019-01-08T16:33:47.544Z,8.20
2019-01-08T16:36:27.815Z,8.10
2019-01-08T16:39:08.078Z,8.20
2019-01-08T16:44:51.229Z,8.10
2019-01-08T16:47:31.359Z,8.20
2019-01-08T16:50:11.265Z,8.40
2019-01-08T16:52:51.354Z,8.30
2019-01-08T16:55:31.557Z,8.30
2019-01-08T16:58:11.892Z,8.30
2019-01-08T17:00:51.869Z,8.20
2019-01-08T17:03:31.907Z,8.20
2019-01-08T17:09:08.341Z,8.00
2019-01-08T17:11:48.425Z,7.80
2019-01-08T17:14:29.898Z,7.90
2019-01-08T17:17:09.681Z,7.90
2019-01-08T17:19:53.356Z,8.00
2019-01-08T17:22:33.758Z,8.00
2019-01-08T17:25:13.898Z,7.90
2019-01-08T17:27:53.871Z,7.70
2019-01-08T17:30:33.970Z,7.60
2019-01-08T17:33:13.933Z,7.50
2019-01-08T17:35:53.962Z,7.60
2019-01-08T17:38:34.349Z,7.60
2019-01-08T17:41:14.487Z,7.80
2019-01-08T17:43:54.659Z,7.60
2019-01-08T17:46:34.756Z,7.80
2019-01-08T17:49:14.957Z,7.60
2019-01-08T17:51:54.750Z,7.80
2019-01-08T17:54:34.801Z,8.10
2019-01-08T17:57:15.899Z,7.70
2019-01-08T17:59:56.634Z,7.80
2019-01-08T18:02:36.864Z,7.70
2019-01-08T18:05:17.010Z,7.50
2019-01-08T18:07:57.176Z,7.70
2019-01-08T18:10:37.007Z,7.70
2019-01-08T18:16:13.406Z,7.80
2019-01-08T18:18:53.547Z,7.90
2019-01-08T18:21:34.007Z,8.00
2019-01-08T18:24:14.911Z,7.80
2019-01-08T18:26:55.015Z,7.90
2019-01-08T18:29:35.386Z,7.90
2019-01-08T18:32:03.259Z,7.90
2019-01-08T18:34:50.436Z,7.80
2019-01-08T18:37:30.302Z,7.70
2019-01-08T18:40:10.509Z,8.00
2019-01-08T18:45:47.054Z,7.90
2019-01-08T18:48:27.324Z,7.80
2019-01-08T18:51:08.158Z,7.80
2019-01-08T18:53:35.978Z,7.80
2019-01-08T18:56:03.723Z,7.80
2019-01-08T18:58:44.581Z,7.90
2019-01-08T19:01:29.266Z,7.90
2019-01-08T19:04:09.093Z,7.90
2019-01-08T19:06:49.290Z,8.00
2019-01-08T19:09:29.455Z,7.80
2019-01-08T19:12:09.689Z,7.80
2019-01-08T19:14:49.756Z,7.80
2019-01-08T19:23:36.351Z,7.90
2019-01-08T19:35:33.465Z,7.80
2019-01-08T19:38:13.472Z,7.90
2019-01-08T19:40:53.576Z,7.60
2019-01-08T19:43:33.638Z,7.90
2019-01-08T19:46:13.659Z,7.90
2019-01-08T19:48:53.587Z,8.00
2019-01-08T19:51:33.895Z,7.80
2019-01-08T19:57:10.028Z,7.90
2019-01-08T19:59:50.961Z,8.00
2019-01-08T20:02:31.525Z,8.00
2019-01-08T20:05:11.711Z,7.90
2019-01-08T20:07:52.430Z,7.90
2019-01-08T20:13:16.119Z,7.80
2019-01-08T20:15:56.791Z,7.80
2019-01-08T20:18:44.995Z,7.90
2019-01-08T20:21:18.975Z,7.90
2019-01-08T20:24:06.315Z,7.60
2019-01-08T20:26:41.332Z,7.80
2019-01-08T20:35:20.763Z,8.00
2019-01-08T20:38:00.638Z,8.10
2019-01-08T20:40:40.833Z,8.00
2019-01-08T20:43:21.049Z,7.90
2019-01-08T20:46:01.901Z,7.90
2019-01-08T20:51:27.196Z,8.00
2019-01-08T20:54:07.554Z,8.00
2019-01-08T20:59:43.937Z,7.90
2019-01-08T21:02:24.003Z,7.90
2019-01-08T21:05:04.065Z,7.70
2019-01-08T21:07:31.930Z,7.80
2019-01-08T21:10:12.041Z,7.70
2019-01-08T21:12:52.305Z,7.80
2019-01-08T21:15:32.750Z,7.70
2019-01-08T21:18:12.562Z,7.80
2019-01-08T21:20:52.713Z,7.60
2019-01-08T21:23:32.850Z,7.70
2019-01-08T21:26:12.680Z,7.70
2019-01-08T21:28:52.874Z,7.70
2019-01-08T21:31:33.226Z,7.80
2019-01-08T21:36:58.846Z,7.50
2019-01-08T21:39:58.847Z,7.60
2019-01-08T21:42:39.298Z,7.70
2019-01-08T21:45:20.289Z,7.60
2019-01-08T21:48:00.261Z,7.70
2019-01-08T21:50:40.736Z,7.60
2019-01-08T21:53:21.415Z,7.40
2019-01-08T21:56:01.552Z,7.60
2019-01-08T21:58:41.830Z,7.80
2019-01-08T22:01:21.629Z,7.70
2019-01-08T22:04:01.901Z,7.70
2019-01-08T22:09:45.276Z,7.70
2019-01-08T22:12:28.462Z,7.60
2019-01-08T22:15:08.381Z,7.50
2019-01-08T22:17:48.502Z,7.30
2019-01-08T22:20:28.713Z,7.10
2019-01-08T22:23:08.670Z,7.20
2019-01-08T22:25:48.665Z,7.10
2019-01-08T22:28:28.898Z,7.10
2019-01-08T22:31:09.013Z,7.30
2019-01-08T22:33:48.797Z,7.40
2019-01-08T22:36:28.926Z,7.40
2019-01-08T22:39:09.162Z,7.40
2019-01-08T22:41:49.462Z,7.30
2019-01-08T22:44:29.673Z,7.40
2019-01-08T22:50:13.182Z,7.50
2019-01-08T22:52:53.505Z,7.50
2019-01-08T23:01:47.250Z,7.40
2019-01-08T23:04:27.154Z,7.30
2019-01-08T23:07:07.414Z,7.30
2019-01-08T23:09:35.076Z,7.20
2019-01-08T23:12:15.782Z,7.30
2019-01-08T23:14:56.473Z,7.20
2019-01-08T23:17:36.651Z,7.20
2019-01-08T23:20:16.706Z,7.20
2019-01-08T23:22:56.706Z,7.20
2019-01-08T23:25:36.811Z,7.10
2019-01-08T23:28:16.693Z,7.10
2019-01-08T23:30:57.153Z,7.20
2019-01-08T23:33:37.126Z,7.20
2019-01-08T23:36:17.086Z,7.20
2019-01-08T23:38:57.193Z,7.00
2019-01-08T23:41:37.168Z,7.00
2019-01-08T23:44:17.255Z,6.90
2019-01-08T23:46:57.562Z,6.80
2019-01-08T23:49:37.725Z,6.70
2019-01-08T23:52:17.767Z,6.80
2019-01-08T23:54:57.837Z,6.90
2019-01-08T23:57:37.910Z,6.90
